Time;durP1;ratioP1;P1;durP2;ratioP2;P2;SDS_P1;SDS_P2;PMS_P1;PMS_P2;Temp;Humidity;BMP_temperature;BMP_pressure;BME280_temperature;BME280_humidity;BME280_pressure;Samples;Min_cycle;Max_cycle;Signal;HPM_P1;HPM_P2
2021/03/02 00:00:21;;;;;;;47.87;22.40;;;0.90;99.90;;;;;;4155405;28;20368;-61
2021/03/02 00:02:22;;;;;;;31.40;15.57;;;0.90;99.90;;;;;;4156189;28;20274;-60
2021/03/02 00:04:23;;;;;;;34.77;16.50;;;0.80;99.90;;;;;;4155789;28;20813;-63
2021/03/02 00:06:25;;;;;;;30.27;15.67;;;0.80;99.90;;;;;;4155828;28;20950;-65
2021/03/02 00:08:28;;;;;;;31.10;15.40;;;0.80;99.90;;;;;;4155635;28;20283;-60
2021/03/02 00:10:29;;;;;;;29.20;14.10;;;0.80;99.90;;;;;;4167006;28;20344;-56
2021/03/02 00:12:31;;;;;;;37.73;18.07;;;0.70;99.90;;;;;;4154379;28;20821;-60
2021/03/02 00:14:35;;;;;;;28.77;15.07;;;0.70;99.90;;;;;;4156358;28;20812;-61
2021/03/02 00:16:41;;;;;;;30.83;14.50;;;0.70;99.90;;;;;;4156145;28;20262;-61
2021/03/02 00:18:48;;;;;;;27.60;13.70;;;0.70;99.90;;;;;;4156087;28;20344;-59
2021/03/02 00:20:55;;;;;;;27.90;13.63;;;0.70;99.90;;;;;;4155474;28;21009;-61
2021/03/02 00:23:07;;;;;;;27.33;13.03;;;0.70;99.90;;;;;;4154954;28;20255;-59
2021/03/02 00:25:11;;;;;;;20.67;11.47;;;0.70;99.90;;;;;;4155668;28;20730;-59
2021/03/02 00:27:15;;;;;;;22.10;11.40;;;0.70;99.90;;;;;;4155465;28;20266;-60
2021/03/02 00:29:17;;;;;;;22.17;12.00;;;0.80;99.90;;;;;;4155302;28;20278;-61
2021/03/02 00:31:19;;;;;;;17.63;9.73;;;0.70;99.90;;;;;;4155986;28;20320;-60
2021/03/02 00:33:24;;;;;;;16.30;8.80;;;0.80;99.90;;;;;;4155278;28;20337;-60
2021/03/02 00:35:25;;;;;;;19.23;9.67;;;0.80;99.90;;;;;;4155438;28;20345;-60
2021/03/02 00:37:26;;;;;;;20.27;9.60;;;0.80;99.90;;;;;;4155530;28;20864;-63
2021/03/02 00:39:28;;;;;;;21.03;10.00;;;0.80;99.90;;;;;;4155255;28;20258;-61
2021/03/02 00:41:29;;;;;;;21.33;9.80;;;0.70;99.90;;;;;;4155743;28;20356;-61
2021/03/02 00:43:30;;;;;;;22.20;10.40;;;0.70;99.90;;;;;;4155429;28;20344;-57
2021/03/02 00:45:31;;;;;;;21.53;11.17;;;0.60;99.90;;;;;;4156069;28;20332;-60
2021/03/02 00:47:33;;;;;;;19.63;11.10;;;0.60;99.90;;;;;;4155751;28;20854;-64
2021/03/02 00:49:35;;;;;;;23.47;11.97;;;0.60;99.90;;;;;;4155315;28;20348;-60
2021/03/02 00:51:36;;;;;;;23.23;11.07;;;0.50;99.90;;;;;;4155313;28;20352;-60
2021/03/02 00:53:37;;;;;;;20.87;10.57;;;0.50;99.90;;;;;;4155751;28;20337;-61
2021/03/02 00:55:38;;;;;;;19.63;10.53;;;0.50;99.90;;;;;;4155201;28;20316;-59
2021/03/02 00:57:39;;;;;;;20.90;10.13;;;0.40;99.90;;;;;;4155574;28;20267;-60
2021/03/02 00:59:41;;;;;;;18.50;9.43;;;0.40;99.90;;;;;;4154873;28;20279;-59
2021/03/02 01:01:44;;;;;;;18.37;10.03;;;0.40;99.90;;;;;;4155409;28;20930;-60
2021/03/02 01:03:45;;;;;;;21.57;10.23;;;0.30;99.90;;;;;;4154109;28;20297;-63
2021/03/02 01:05:46;;;;;;;20.73;10.47;;;0.40;99.90;;;;;;4155102;28;20326;-60
2021/03/02 01:07:48;;;;;;;19.50;8.33;;;0.30;99.90;;;;;;4156143;28;20352;-58
2021/03/02 01:09:49;;;;;;;22.00;9.43;;;0.30;99.90;;;;;;4154004;28;20313;-60
2021/03/02 01:11:50;;;;;;;18.27;9.70;;;0.30;99.90;;;;;;4139752;28;20260;-59
2021/03/02 01:13:51;;;;;;;21.73;9.43;;;0.30;99.90;;;;;;4138904;28;20317;-60
2021/03/02 01:15:53;;;;;;;25.00;11.87;;;0.20;99.90;;;;;;4153097;28;20282;-57
2021/03/02 01:17:54;;;;;;;21.03;10.20;;;0.20;99.90;;;;;;4155266;28;20322;-60
2021/03/02 01:19:55;;;;;;;21.50;9.33;;;0.20;99.90;;;;;;4155870;28;20278;-62
2021/03/02 01:21:56;;;;;;;19.73;9.80;;;0.20;99.90;;;;;;4155887;28;20302;-61
2021/03/02 01:23:58;;;;;;;19.07;10.20;;;0.10;99.90;;;;;;4155168;28;20275;-59
2021/03/02 01:25:59;;;;;;;17.40;9.03;;;0.10;99.90;;;;;;4155680;28;20659;-60
2021/03/02 01:28:00;;;;;;;15.40;8.03;;;0.10;99.90;;;;;;4155112;28;20774;-57
2021/03/02 01:30:03;;;;;;;15.40;7.93;;;0.10;99.90;;;;;;4154866;28;20316;-61
2021/03/02 01:32:05;;;;;;;19.17;8.77;;;0.10;99.90;;;;;;4155758;28;20266;-58
2021/03/02 01:34:07;;;;;;;25.73;10.43;;;0.10;99.90;;;;;;4158145;28;20270;-61
2021/03/02 01:36:08;;;;;;;18.63;9.33;;;0.10;99.90;;;;;;4158505;28;20337;-62
2021/03/02 01:38:10;;;;;;;18.07;9.53;;;0.10;99.90;;;;;;4158182;28;21174;-60
2021/03/02 01:40:12;;;;;;;18.13;8.90;;;0.00;99.90;;;;;;4157786;28;20332;-60
2021/03/02 01:42:13;;;;;;;19.20;9.60;;;0.00;99.90;;;;;;4158279;28;20349;-59
2021/03/02 01:44:15;;;;;;;22.00;10.10;;;0.00;99.90;;;;;;4158131;28;20283;-60
2021/03/02 01:46:17;;;;;;;17.00;9.13;;;0.00;99.90;;;;;;4158538;28;20821;-57
2021/03/02 01:48:18;;;;;;;22.83;9.97;;;-0.10;99.90;;;;;;4156581;28;20325;-61
2021/03/02 01:50:22;;;;;;;22.90;9.60;;;-0.10;99.90;;;;;;4158156;28;20278;-61
2021/03/02 01:52:23;;;;;;;22.47;10.47;;;-0.10;99.90;;;;;;4158232;28;20283;-59
2021/03/02 01:54:24;;;;;;;23.33;10.73;;;-0.10;99.90;;;;;;4158195;28;20271;-58
2021/03/02 01:56:26;;;;;;;22.57;9.97;;;-0.10;99.90;;;;;;4155819;28;20274;-59
2021/03/02 01:58:28;;;;;;;23.43;11.80;;;-0.20;99.90;;;;;;4157871;28;20267;-60
2021/03/02 02:00:36;;;;;;;25.20;11.77;;;-0.30;99.90;;;;;;4157379;28;20282;-60
2021/03/02 02:03:00;;;;;;;25.63;12.63;;;-0.30;99.90;;;;;;4157218;28;20363;-58
2021/03/02 02:05:03;;;;;;;22.77;11.67;;;-0.40;99.90;;;;;;4123910;28;20279;-62
2021/03/02 02:07:15;;;;;;;26.77;11.63;;;-0.40;99.90;;;;;;4158223;28;20691;-60
2021/03/02 02:09:36;;;;;;;25.23;11.10;;;-0.50;99.90;;;;;;4157352;28;20753;-60
2021/03/02 02:12:18;;;;;;;22.52;11.00;;;-0.50;99.90;;;;;;4157967;28;20828;-59
2021/03/02 02:14:33;;;;;;;25.97;10.40;;;-0.50;99.90;;;;;;4139828;28;20083;-54
2021/03/02 02:16:38;;;;;;;21.13;10.63;;;-0.50;99.90;;;;;;4141512;28;20317;-61
2021/03/02 02:18:44;;;;;;;27.23;11.23;;;-0.60;99.90;;;;;;4141219;28;20279;-61
2021/03/02 02:21:07;;;;;;;29.40;11.73;;;-0.60;99.90;;;;;;4154398;28;20344;-60
2021/03/02 02:23:26;;;;;;;22.40;10.67;;;-0.60;99.90;;;;;;4157326;28;20666;-60
2021/03/02 02:26:01;;;;;;;25.07;11.60;;;-0.60;99.90;;;;;;4157572;28;20274;-60
2021/03/02 02:28:04;;;;;;;23.43;10.60;;;-0.70;99.90;;;;;;4157784;28;20332;-60
2021/03/02 02:30:06;;;;;;;24.60;12.00;;;-0.70;99.90;;;;;;4157483;28;20275;-56
2021/03/02 02:32:10;;;;;;;22.97;11.73;;;-0.80;99.90;;;;;;4157556;28;20321;-60
2021/03/02 02:34:15;;;;;;;20.03;10.07;;;-0.80;99.90;;;;;;4157540;28;20325;-60
2021/03/02 02:36:18;;;;;;;22.03;10.30;;;-0.80;99.90;;;;;;4157615;28;20286;-52
2021/03/02 02:38:20;;;;;;;22.77;11.27;;;-0.80;99.90;;;;;;4157413;28;20283;-60
2021/03/02 02:40:23;;;;;;;22.17;11.00;;;-0.80;99.90;;;;;;4156927;28;20908;-58
2021/03/02 02:42:25;;;;;;;22.10;10.73;;;-0.90;99.90;;;;;;4157389;28;20291;-59
2021/03/02 02:44:27;;;;;;;27.17;13.30;;;-0.90;99.90;;;;;;4156605;28;20352;-61
2021/03/02 02:46:30;;;;;;;23.83;11.43;;;-0.90;99.90;;;;;;4157695;28;20266;-60
2021/03/02 02:48:31;;;;;;;20.87;10.80;;;-1.00;99.90;;;;;;4157000;28;20274;-58
2021/03/02 02:50:33;;;;;;;25.50;11.43;;;-1.00;99.90;;;;;;4141095;28;20271;-63
2021/03/02 02:52:38;;;;;;;21.27;11.10;;;-1.00;99.90;;;;;;4140935;28;20341;-59
2021/03/02 02:54:39;;;;;;;22.47;10.57;;;-1.00;99.90;;;;;;4144810;28;20320;-59
2021/03/02 02:56:43;;;;;;;20.70;10.87;;;-1.00;99.90;;;;;;4157029;28;20387;-59
2021/03/02 02:59:03;;;;;;;20.27;10.70;;;-1.00;99.90;;;;;;4155264;28;20360;-61
2021/03/02 03:01:05;;;;;;;20.90;9.37;;;-1.00;99.90;;;;;;4156692;28;20271;-59
2021/03/02 03:03:12;;;;;;;18.57;9.90;;;-1.00;99.90;;;;;;4157394;28;20270;-61
2021/03/02 03:05:17;;;;;;;23.03;8.73;;;-1.00;99.90;;;;;;4157381;28;20324;-59
2021/03/02 03:07:43;;;;;;;18.37;9.70;;;-1.00;99.90;;;;;;4157061;28;20259;-60
2021/03/02 03:09:45;;;;;;;18.47;9.17;;;-0.90;99.90;;;;;;4153754;28;21262;-58
2021/03/02 03:11:51;;;;;;;17.30;8.90;;;-1.00;99.90;;;;;;4160982;28;20332;-60
2021/03/02 03:13:53;;;;;;;17.40;8.90;;;-0.90;99.90;;;;;;4140603;28;20313;-59
2021/03/02 03:16:01;;;;;;;17.70;8.57;;;-0.90;99.90;;;;;;4140518;28;20267;-61
2021/03/02 03:18:08;;;;;;;21.37;9.53;;;-0.90;99.90;;;;;;4148748;28;20864;-60
2021/03/02 03:20:11;;;;;;;17.93;8.97;;;-0.90;99.90;;;;;;4156821;28;20266;-60
2021/03/02 03:22:15;;;;;;;21.77;9.60;;;-0.90;99.90;;;;;;4156503;28;20298;-61
2021/03/02 03:24:16;;;;;;;19.53;9.40;;;-0.90;99.90;;;;;;4156898;28;20320;-57
2021/03/02 03:26:22;;;;;;;16.13;8.67;;;-0.90;99.90;;;;;;4156787;28;20324;-61
2021/03/02 03:28:24;;;;;;;19.37;9.87;;;-0.90;99.90;;;;;;4155778;28;20278;-58
2021/03/02 03:30:30;;;;;;;18.10;8.83;;;-0.90;99.90;;;;;;4156894;28;20325;-61
2021/03/02 03:32:33;;;;;;;19.67;8.90;;;-1.00;99.90;;;;;;4156247;28;20286;-61
2021/03/02 03:34:34;;;;;;;21.00;10.20;;;-1.00;99.90;;;;;;4156625;28;20689;-60
2021/03/02 03:36:36;;;;;;;20.13;10.07;;;-1.00;99.90;;;;;;4140422;28;20283;-59
2021/03/02 03:38:38;;;;;;;23.83;10.40;;;-1.10;99.90;;;;;;4140650;28;20294;-58
2021/03/02 03:40:39;;;;;;;21.63;10.83;;;-1.10;99.90;;;;;;4151633;28;20297;-60
2021/03/02 03:42:40;;;;;;;21.23;9.83;;;-1.10;99.90;;;;;;4156516;28;20298;-60
2021/03/02 03:44:42;;;;;;;19.60;9.47;;;-1.20;99.90;;;;;;4155780;28;20356;-57
2021/03/02 03:46:43;;;;;;;22.83;10.50;;;-1.20;99.90;;;;;;4155171;28;20283;-60
2021/03/02 03:48:44;;;;;;;21.80;10.20;;;-1.20;99.90;;;;;;4155946;28;20304;-61
2021/03/02 03:50:46;;;;;;;18.47;10.23;;;-1.30;99.90;;;;;;4155800;28;20349;-60
2021/03/02 03:52:51;;;;;;;18.37;9.60;;;-1.30;99.90;;;;;;4156395;28;20278;-56
2021/03/02 03:54:55;;;;;;;20.23;9.20;;;-1.30;99.90;;;;;;4156293;28;20337;-59
2021/03/02 03:56:57;;;;;;;19.30;7.73;;;-1.10;99.90;;;;;;4155930;28;20349;-60
2021/03/02 03:58:59;;;;;;;17.93;9.03;;;-1.00;99.90;;;;;;4155741;28;20274;-59
2021/03/02 04:01:05;;;;;;;19.30;8.90;;;-1.10;99.90;;;;;;4155058;28;20290;-60
2021/03/02 04:03:07;;;;;;;17.57;8.00;;;-1.00;99.90;;;;;;4156731;28;20348;-59
2021/03/02 04:05:10;;;;;;;19.67;7.90;;;-1.00;99.90;;;;;;4156023;28;20279;-61
2021/03/02 04:07:12;;;;;;;20.87;8.63;;;-1.00;99.90;;;;;;4155894;28;20309;-55
2021/03/02 04:09:13;;;;;;;18.63;8.43;;;-1.00;99.90;;;;;;4155781;28;20282;-56
2021/03/02 04:11:14;;;;;;;19.47;8.90;;;-1.10;99.90;;;;;;4155661;28;21205;-61
2021/03/02 04:13:16;;;;;;;22.53;9.77;;;-1.10;99.90;;;;;;4155521;28;20341;-60
2021/03/02 04:15:18;;;;;;;23.50;9.27;;;-1.10;99.90;;;;;;4155858;28;20339;-61
2021/03/02 04:17:19;;;;;;;21.17;9.00;;;-1.10;99.90;;;;;;4156470;28;20267;-60
2021/03/02 04:19:20;;;;;;;19.43;8.80;;;-1.10;99.90;;;;;;4154244;28;20328;-59
2021/03/02 04:21:21;;;;;;;15.53;8.07;;;-1.20;99.90;;;;;;4156390;28;20325;-61
2021/03/02 04:23:22;;;;;;;33.93;9.87;;;-1.10;99.90;;;;;;4155645;28;20317;-58
2021/03/02 04:25:24;;;;;;;17.77;8.93;;;-1.10;99.90;;;;;;4155577;28;20332;-57
2021/03/02 04:27:25;;;;;;;15.63;8.83;;;-1.10;99.90;;;;;;4154875;28;20350;-60
2021/03/02 04:29:26;;;;;;;22.27;10.63;;;-1.10;99.90;;;;;;4155570;28;20279;-61
2021/03/02 04:31:27;;;;;;;24.77;10.93;;;-1.20;99.90;;;;;;4155787;28;20263;-60
2021/03/02 04:33:29;;;;;;;26.83;12.20;;;-1.20;99.90;;;;;;4156202;28;20328;-60
2021/03/02 04:35:30;;;;;;;31.33;12.77;;;-1.30;99.90;;;;;;4156394;28;20321;-60
2021/03/02 04:37:31;;;;;;;45.70;21.40;;;-1.40;99.90;;;;;;4155710;28;20412;-58
2021/03/02 04:39:32;;;;;;;48.60;21.13;;;-1.50;99.90;;;;;;4155804;28;20266;-59
2021/03/02 04:41:34;;;;;;;46.37;20.57;;;-1.60;99.90;;;;;;4155060;28;20275;-61
2021/03/02 04:43:35;;;;;;;37.57;17.90;;;-1.60;99.90;;;;;;4155467;28;20275;-62
2021/03/02 04:45:38;;;;;;;39.80;17.73;;;-1.60;99.90;;;;;;4155244;28;20313;-59
2021/03/02 04:47:44;;;;;;;49.20;18.00;;;-1.70;99.90;;;;;;4156157;28;20263;-63
2021/03/02 04:49:46;;;;;;;34.80;17.17;;;-1.70;99.90;;;;;;4154878;28;20274;-61
2021/03/02 04:51:47;;;;;;;44.53;19.07;;;-1.70;99.90;;;;;;4155401;28;20309;-60
2021/03/02 04:53:48;;;;;;;45.63;21.37;;;-1.70;99.90;;;;;;4154792;28;20416;-61
2021/03/02 04:55:49;;;;;;;42.97;20.30;;;-1.80;99.90;;;;;;4155724;28;20320;-64
2021/03/02 04:57:51;;;;;;;43.20;20.63;;;-1.80;99.90;;;;;;4154764;28;20283;-60
2021/03/02 04:59:52;;;;;;;39.77;18.87;;;-1.90;99.90;;;;;;4154555;28;20286;-58
2021/03/02 05:01:53;;;;;;;44.37;19.30;;;-1.90;99.90;;;;;;4155598;28;20329;-63
2021/03/02 05:03:54;;;;;;;43.57;19.47;;;-1.90;99.90;;;;;;4155288;28;20279;-59
2021/03/02 05:05:55;;;;;;;37.63;16.87;;;-1.90;99.90;;;;;;4154850;28;20274;-60
2021/03/02 05:07:56;;;;;;;36.17;15.77;;;-1.90;99.90;;;;;;4156758;28;20759;-57
2021/03/02 05:09:58;;;;;;;44.67;19.80;;;-1.90;99.90;;;;;;4159226;28;20270;-59
2021/03/02 05:11:59;;;;;;;53.17;23.73;;;-1.90;99.90;;;;;;4158274;28;20275;-61
2021/03/02 05:14:00;;;;;;;68.07;25.07;;;-1.70;99.90;;;;;;4158253;28;20282;-60
2021/03/02 05:16:01;;;;;;;44.50;16.83;;;-1.50;99.90;;;;;;4157358;28;20345;-59
2021/03/02 05:18:03;;;;;;;56.20;21.73;;;-1.30;99.90;;;;;;4158493;28;20278;-63
2021/03/02 05:20:06;;;;;;;86.03;30.90;;;-1.00;99.90;;;;;;4158126;28;20271;-60
2021/03/02 05:22:07;;;;;;;56.37;22.33;;;-0.80;99.90;;;;;;4158563;28;20304;-61
2021/03/02 05:24:09;;;;;;;41.37;18.17;;;-0.50;99.90;;;;;;4158219;28;20313;-58
2021/03/02 05:26:10;;;;;;;40.03;15.80;;;-0.20;99.90;;;;;;4158495;28;20324;-66
2021/03/02 05:28:11;;;;;;;31.10;13.77;;;0.00;99.90;;;;;;4158004;28;20317;-59
2021/03/02 05:30:13;;;;;;;33.97;14.37;;;0.20;99.90;;;;;;4157162;28;20773;-60
2021/03/02 05:32:14;;;;;;;34.47;14.10;;;0.60;99.90;;;;;;4158434;28;20887;-64
2021/03/02 05:34:15;;;;;;;28.37;13.00;;;0.90;99.90;;;;;;4158105;28;20805;-60
2021/03/02 05:36:17;;;;;;;35.67;14.17;;;1.20;99.90;;;;;;4157737;28;20308;-57
2021/03/02 05:38:18;;;;;;;34.00;16.13;;;1.60;99.90;;;;;;4158094;28;20306;-59
2021/03/02 05:40:19;;;;;;;41.27;18.23;;;2.00;99.90;;;;;;4157587;28;20282;-62
2021/03/02 05:42:20;;;;;;;42.53;20.33;;;2.50;99.90;;;;;;4157701;28;20364;-60
2021/03/02 05:44:22;;;;;;;46.13;20.20;;;2.90;99.90;;;;;;4157067;28;20290;-60
2021/03/02 05:46:24;;;;;;;44.87;21.37;;;3.30;99.90;;;;;;4157820;28;20293;-61
2021/03/02 05:48:29;;;;;;;62.77;25.60;;;3.70;99.90;;;;;;4156974;28;20336;-61
2021/03/02 05:50:30;;;;;;;39.73;17.73;;;4.00;99.90;;;;;;4157648;28;20304;-64
2021/03/02 05:52:32;;;;;;;40.97;16.70;;;4.20;99.90;;;;;;4157891;28;20681;-61
2021/03/02 05:54:33;;;;;;;34.60;15.20;;;4.40;99.90;;;;;;4157669;28;20278;-61
2021/03/02 05:56:39;;;;;;;38.13;15.20;;;4.50;99.90;;;;;;4157740;28;20282;-61
2021/03/02 05:58:41;;;;;;;37.40;17.83;;;4.50;99.90;;;;;;4157611;28;20279;-60
2021/03/02 06:00:43;;;;;;;39.70;16.43;;;4.60;99.90;;;;;;4157598;28;20286;-64
2021/03/02 06:02:44;;;;;;;40.80;16.63;;;4.90;99.90;;;;;;4157915;28;20356;-63
2021/03/02 06:04:48;;;;;;;36.30;14.33;;;5.20;99.90;;;;;;4157118;28;20119;-63
2021/03/02 06:06:49;;;;;;;31.23;15.33;;;5.70;99.90;;;;;;4155845;28;20091;-63
2021/03/02 06:08:51;;;;;;;41.30;18.60;;;6.20;99.90;;;;;;4157804;28;20033;-62
2021/03/02 06:10:52;;;;;;;37.70;16.10;;;6.50;99.90;;;;;;4157265;28;20033;-65
2021/03/02 06:12:55;;;;;;;52.70;17.40;;;6.90;99.90;;;;;;4158055;28;20440;-65
2021/03/02 06:15:05;;;;;;;38.23;17.43;;;7.10;99.90;;;;;;4157828;28;20087;-63
2021/03/02 06:17:07;;;;;;;32.00;15.80;;;7.20;99.90;;;;;;4157710;28;20021;-64
2021/03/02 06:19:09;;;;;;;34.97;16.30;;;7.40;99.90;;;;;;4156571;28;20087;-65
2021/03/02 06:21:11;;;;;;;31.63;15.10;;;7.50;99.90;;;;;;4156841;28;20065;-66
2021/03/02 06:23:25;;;;;;;34.30;14.97;;;7.70;99.90;;;;;;4157473;28;20041;-64
2021/03/02 06:25:29;;;;;;;31.00;14.70;;;8.10;99.90;;;;;;4156883;28;20031;-66
2021/03/02 06:27:31;;;;;;;35.93;14.63;;;8.50;99.90;;;;;;4157574;28;20428;-65
2021/03/02 06:29:32;;;;;;;37.10;15.00;;;8.90;98.90;;;;;;4156312;28;20042;-64
2021/03/02 06:31:36;;;;;;;42.17;17.93;;;9.40;97.30;;;;;;4157443;28;20033;-64
2021/03/02 06:33:38;;;;;;;39.47;18.23;;;9.60;94.90;;;;;;4157249;28;20103;-64
2021/03/02 06:35:43;;;;;;;32.97;17.20;;;9.80;94.50;;;;;;4157519;28;20034;-64
2021/03/02 06:37:47;;;;;;;33.90;16.43;;;10.00;93.40;;;;;;4156282;28;20041;-64
2021/03/02 06:39:48;;;;;;;36.30;16.47;;;10.20;91.70;;;;;;4157390;28;20025;-64
2021/03/02 06:41:51;;;;;;;18.70;6.70;;;10.30;90.60;;;;;;4156354;28;20535;-65
2021/03/02 06:43:52;;;;;;;15.33;6.63;;;10.10;87.50;;;;;;4156190;28;20053;-65
2021/03/02 06:45:53;;;;;;;15.50;6.23;;;9.90;85.70;;;;;;4156837;28;20890;-63
2021/03/02 06:48:06;;;;;;;11.37;5.70;;;9.40;83.70;;;;;;4156777;28;20041;-66
2021/03/02 06:50:11;;;;;;;13.83;6.63;;;9.10;83.60;;;;;;4156823;28;20072;-64
2021/03/02 06:52:19;;;;;;;17.33;6.80;;;9.20;84.50;;;;;;4156812;28;20782;-63
2021/03/02 06:54:25;;;;;;;10.97;6.97;;;9.30;83.00;;;;;;4156956;28;20022;-64
2021/03/02 06:56:26;;;;;;;17.13;7.67;;;9.60;82.60;;;;;;4156062;28;20379;-63
2021/03/02 06:58:27;;;;;;;16.83;6.53;;;9.80;81.00;;;;;;4156866;28;20037;-63
2021/03/02 07:00:33;;;;;;;18.97;7.47;;;9.80;80.10;;;;;;4156593;28;20034;-64
2021/03/02 07:02:42;;;;;;;12.77;5.90;;;9.60;79.30;;;;;;4157034;28;20545;-63
2021/03/02 07:04:43;;;;;;;11.70;7.37;;;9.80;78.10;;;;;;4154890;28;20045;-64
2021/03/02 07:07:08;;;;;;;15.93;7.60;;;9.70;78.60;;;;;;4156353;28;20041;-65
2021/03/02 07:09:25;;;;;;;14.53;7.80;;;9.60;78.30;;;;;;4156002;28;20055;-63
2021/03/02 07:13:58;;;;;;;;;;;9.40;78.20;;;;;;4156749;28;20037;-64
2021/03/02 07:16:04;;;;;;;20.63;9.67;;;9.60;75.10;;;;;;4156526;28;20361;-65
2021/03/02 07:18:16;;;;;;;15.50;8.20;;;9.90;77.30;;;;;;4155793;28;20123;-65
2021/03/02 07:20:29;;;;;;;17.03;9.13;;;10.20;76.30;;;;;;4156475;28;20083;-64
2021/03/02 07:22:37;;;;;;;15.10;7.60;;;10.20;75.50;;;;;;4156500;28;20041;-64
2021/03/02 07:24:54;;;;;;;19.50;7.70;;;9.90;75.50;;;;;;4156317;28;20091;-64
2021/03/02 07:27:04;;;;;;;14.83;6.33;;;9.90;76.20;;;;;;4154614;28;20068;-64
2021/03/02 07:29:05;;;;;;;13.15;6.65;;;10.00;76.30;;;;;;4154785;28;20251;-64
2021/03/02 07:31:09;;;;;;;16.90;7.87;;;10.00;75.50;;;;;;4155975;28;20041;-63
2021/03/02 07:33:11;;;;;;;18.53;6.97;;;9.90;75.50;;;;;;4157100;28;20033;-64
2021/03/02 07:35:17;;;;;;;14.40;7.03;;;10.10;75.30;;;;;;4156352;28;20425;-63
2021/03/02 07:37:21;;;;;;;12.47;6.53;;;10.20;74.80;;;;;;4155815;28;20053;-63
2021/03/02 07:39:29;;;;;;;11.17;6.20;;;10.20;74.50;;;;;;4156229;28;20076;-64
2021/03/02 07:41:34;;;;;;;13.70;6.40;;;10.10;74.40;;;;;;4155828;28;20548;-64
2021/03/02 07:43:37;;;;;;;11.77;6.57;;;10.20;74.60;;;;;;4155790;28;20099;-64
2021/03/02 07:45:38;;;;;;;14.57;6.43;;;10.40;75.00;;;;;;4156127;28;20045;-64
2021/03/02 07:47:51;;;;;;;18.37;7.00;;;10.70;73.80;;;;;;4156274;28;20033;-64
2021/03/02 07:50:22;;;;;;;11.40;6.37;;;10.80;71.80;;;;;;4155351;28;20087;-64
2021/03/02 07:52:24;;;;;;;14.33;6.50;;;10.60;71.90;;;;;;4155261;28;20414;-66
2021/03/02 07:54:25;;;;;;;17.47;7.07;;;10.90;73.50;;;;;;4155529;28;20102;-65
2021/03/02 07:56:26;;;;;;;14.27;6.70;;;11.00;72.80;;;;;;4155970;28;20622;-64
2021/03/02 07:58:28;;;;;;;16.60;7.23;;;11.00;72.40;;;;;;4155012;28;20037;-65
2021/03/02 08:00:29;;;;;;;19.73;7.80;;;11.00;72.80;;;;;;4155936;28;20539;-62
2021/03/02 08:02:30;;;;;;;13.37;6.40;;;10.80;72.50;;;;;;4156205;28;20497;-65
2021/03/02 08:04:32;;;;;;;12.63;7.17;;;11.00;72.80;;;;;;4155467;28;20026;-65
2021/03/02 08:06:34;;;;;;;13.53;7.43;;;11.30;72.00;;;;;;4155681;28;20568;-66
2021/03/02 08:08:36;;;;;;;15.07;7.10;;;11.70;71.30;;;;;;4155168;28;20429;-64
2021/03/02 08:10:37;;;;;;;14.27;6.80;;;12.00;70.90;;;;;;4155349;28;20811;-64
2021/03/02 08:12:38;;;;;;;13.93;6.20;;;12.10;70.20;;;;;;4155110;28;20029;-63
2021/03/02 08:14:39;;;;;;;13.93;6.30;;;12.10;69.80;;;;;;4155449;28;20489;-64
2021/03/02 08:17:01;;;;;;;11.50;6.60;;;12.40;69.40;;;;;;4155469;28;20099;-66
2021/03/02 08:19:31;;;;;;;17.03;6.70;;;12.30;67.20;;;;;;4155825;28;20071;-64
2021/03/02 08:21:33;;;;;;;12.98;7.60;;;12.20;68.10;;;;;;4155310;28;20026;-65
2021/03/02 08:24:04;;;;;;;16.37;6.93;;;12.20;69.10;;;;;;4153412;28;20045;-65
2021/03/02 08:26:27;;;;;;;20.27;7.10;;;12.10;67.70;;;;;;4137557;28;20045;-64
2021/03/02 08:28:28;;;;;;;16.93;7.60;;;12.10;68.10;;;;;;4155560;28;20412;-64
2021/03/02 08:30:29;;;;;;;11.63;6.30;;;12.10;69.10;;;;;;4155206;28;20030;-65
2021/03/02 08:32:31;;;;;;;13.43;8.40;;;12.10;69.40;;;;;;4156210;28;20075;-66
2021/03/02 08:34:32;;;;;;;15.00;6.83;;;12.00;69.40;;;;;;4154272;28;20385;-67
2021/03/02 08:36:35;;;;;;;15.67;6.33;;;11.70;70.00;;;;;;4155309;28;20437;-67
2021/03/02 08:38:37;;;;;;;16.17;6.97;;;11.90;70.60;;;;;;4155075;28;20049;-65
2021/03/02 08:40:38;;;;;;;16.77;6.73;;;11.80;70.10;;;;;;4155763;28;20095;-66
2021/03/02 08:43:05;;;;;;;9.97;6.30;;;11.80;69.80;;;;;;4155455;28;20037;-64
2021/03/02 08:45:11;;;;;;;10.93;5.90;;;11.60;70.00;;;;;;4155138;28;20053;-66
2021/03/02 08:47:12;;;;;;;15.17;7.00;;;11.50;71.40;;;;;;4155019;28;20143;-64
2021/03/02 08:49:13;;;;;;;12.90;6.30;;;11.40;71.50;;;;;;4155668;28;20037;-64
2021/03/02 08:51:20;;;;;;;12.90;6.93;;;11.60;71.30;;;;;;4155697;28;20059;-65
2021/03/02 08:53:34;;;;;;;17.67;6.97;;;11.90;70.70;;;;;;4155668;28;20034;-64
2021/03/02 08:55:38;;;;;;;17.97;7.60;;;11.90;70.50;;;;;;4154987;28;20051;-65
2021/03/02 08:57:46;;;;;;;15.87;6.83;;;11.80;70.30;;;;;;4155561;28;20037;-64
2021/03/02 08:59:47;;;;;;;11.97;7.00;;;11.20;70.60;;;;;;4154954;28;20034;-64
2021/03/02 09:01:55;;;;;;;17.30;8.00;;;11.30;71.80;;;;;;4155237;28;20095;-67
2021/03/02 09:04:32;;;;;;;13.13;7.30;;;11.50;71.60;;;;;;4155547;28;20045;-64
2021/03/02 09:06:33;;;;;;;10.00;6.33;;;11.50;70.80;;;;;;4143922;28;20049;-64
2021/03/02 09:08:55;;;;;;;14.50;7.17;;;11.40;71.50;;;;;;4154908;28;20042;-65
2021/03/02 09:11:03;;;;;;;12.37;6.33;;;11.40;70.70;;;;;;4155066;28;20033;-65
2021/03/02 09:13:06;;;;;;;14.60;6.73;;;11.50;71.10;;;;;;4155201;28;20026;-65
2021/03/02 09:15:08;;;;;;;18.23;6.93;;;11.50;71.50;;;;;;4154994;28;20164;-66
2021/03/02 09:17:09;;;;;;;11.93;6.33;;;11.40;71.60;;;;;;4154631;28;20119;-64
2021/03/02 09:19:22;;;;;;;16.07;6.53;;;11.20;71.80;;;;;;4155073;28;20033;-65
2021/03/02 09:21:24;;;;;;;10.73;5.60;;;11.00;72.00;;;;;;4154637;28;20049;-65
2021/03/02 09:23:25;;;;;;;11.40;3.80;;;11.30;72.40;;;;;;4155113;28;20379;-63
2021/03/02 09:25:31;;;;;;;9.23;3.43;;;11.40;70.50;;;;;;4154963;28;20045;-64
2021/03/02 09:27:38;;;;;;;11.23;3.57;;;11.70;70.30;;;;;;4154474;28;20115;-66
2021/03/02 09:29:40;;;;;;;9.10;3.97;;;11.70;70.20;;;;;;4154952;28;20029;-64
2021/03/02 09:31:42;;;;;;;8.90;4.10;;;11.80;69.80;;;;;;4154814;28;21217;-65
2021/03/02 09:33:43;;;;;;;9.20;4.10;;;11.90;69.70;;;;;;4154759;28;20448;-66
2021/03/02 09:35:44;;;;;;;6.93;4.37;;;11.90;69.40;;;;;;4155035;28;20030;-64
2021/03/02 09:37:46;;;;;;;7.57;3.63;;;12.10;69.00;;;;;;4153261;28;20095;-65
2021/03/02 09:39:59;;;;;;;11.33;4.50;;;12.10;69.00;;;;;;4154738;28;20080;-64
2021/03/02 09:42:01;;;;;;;14.50;4.70;;;12.20;68.40;;;;;;4154813;28;20037;-64
2021/03/02 09:44:29;;;;;;;12.27;4.23;;;12.10;68.10;;;;;;4153939;28;20088;-64
2021/03/02 09:46:40;;;;;;;13.13;5.13;;;11.60;67.60;;;;;;4154839;28;20054;-63
2021/03/02 09:48:48;;;;;;;18.63;5.15;;;11.30;69.80;;;;;;4154799;28;20080;-64
2021/03/02 09:50:49;;;;;;;7.90;3.20;;;11.40;70.50;;;;;;4154449;28;20057;-64
2021/03/02 09:52:52;;;;;;;11.93;4.93;;;11.10;69.40;;;;;;4154557;28;20041;-63
2021/03/02 09:55:15;;;;;;;11.83;4.93;;;10.60;70.50;;;;;;4157094;28;20493;-62
2021/03/02 09:57:16;;;;;;;10.43;4.87;;;10.60;70.50;;;;;;4157407;28;20056;-64
2021/03/02 09:59:24;;;;;;;8.27;3.80;;;10.60;71.10;;;;;;4157113;28;20549;-63
2021/03/02 10:01:26;;;;;;;8.47;3.20;;;10.60;70.60;;;;;;4156528;28;20068;-64
2021/03/02 10:03:35;;;;;;;9.40;3.73;;;10.40;70.90;;;;;;4157976;28;20082;-64
2021/03/02 10:05:40;;;;;;;6.70;3.70;;;10.10;71.40;;;;;;4157019;28;20110;-64
2021/03/02 10:07:44;;;;;;;8.57;3.53;;;10.20;72.00;;;;;;4157220;28;20079;-66
2021/03/02 10:09:48;;;;;;;9.93;3.87;;;10.30;71.40;;;;;;4156973;28;20033;-63
2021/03/02 10:12:14;;;;;;;17.37;4.00;;;10.40;71.90;;;;;;4157789;28;20433;-64
2021/03/02 10:14:15;;;;;;;10.83;3.80;;;10.50;71.20;;;;;;4157125;28;20041;-64
2021/03/02 10:16:38;;;;;;;6.67;3.60;;;10.50;71.30;;;;;;4157831;28;20473;-63
2021/03/02 10:18:59;;;;;;;5.47;3.50;;;10.50;69.90;;;;;;4157017;28;20037;-64
2021/03/02 10:21:08;;;;;;;7.10;3.77;;;10.30;70.80;;;;;;4157242;28;20584;-64
2021/03/02 10:23:13;;;;;;;4.70;3.03;;;10.50;70.90;;;;;;4156646;28;20049;-64
2021/03/02 10:25:14;;;;;;;9.80;3.87;;;10.50;71.10;;;;;;4157142;28;20037;-63
2021/03/02 10:27:18;;;;;;;9.00;3.17;;;10.70;70.80;;;;;;4155470;28;20518;-63
2021/03/02 10:29:19;;;;;;;7.90;3.47;;;10.50;70.00;;;;;;4156972;28;20642;-63
2021/03/02 10:31:21;;;;;;;6.43;4.30;;;10.20;70.80;;;;;;4154557;28;20103;-64
2021/03/02 10:33:22;;;;;;;8.80;3.80;;;10.20;71.50;;;;;;4156975;28;20033;-64
2021/03/02 10:35:24;;;;;;;8.63;3.27;;;10.30;71.20;;;;;;4156385;28;20091;-64
2021/03/02 10:37:25;;;;;;;7.03;3.30;;;10.40;71.30;;;;;;4157207;28;20030;-64
2021/03/02 10:39:27;;;;;;;22.80;5.23;;;10.40;70.60;;;;;;4156648;28;20034;-64
2021/03/02 10:41:29;;;;;;;7.43;2.93;;;10.40;70.80;;;;;;4156756;28;20123;-64
2021/03/02 10:43:30;;;;;;;13.80;3.60;;;10.40;70.10;;;;;;4156093;28;20054;-63